createdAt,value
2018-11-10T00:01:18.125Z,99577.16
2018-11-10T00:03:44.215Z,99573.05
2018-11-10T00:06:10.424Z,99570.91
2018-11-10T00:08:36.512Z,99573.87
2018-11-10T00:11:02.617Z,99581.47
2018-11-10T00:13:29.502Z,99578.17
2018-11-10T00:15:55.563Z,99572.63
2018-11-10T00:18:22.582Z,99567.05
2018-11-10T00:20:48.716Z,99568.23
2018-11-10T00:23:16.092Z,99564.95
2018-11-10T00:25:42.143Z,99558.25
2018-11-10T00:28:08.219Z,99562.58
2018-11-10T00:30:34.420Z,99565.47
2018-11-10T00:33:00.649Z,99561.59
2018-11-10T00:35:26.821Z,99560.23
2018-11-10T00:37:53.648Z,99567.77
2018-11-10T00:40:21.170Z,99558.55
2018-11-10T00:42:47.350Z,99555.73
2018-11-10T00:45:13.395Z,99554.48
2018-11-10T00:47:39.545Z,99555.30
2018-11-10T00:50:05.732Z,99555.74
2018-11-10T00:52:31.915Z,99558.22
2018-11-10T00:54:58.037Z,99571.25
2018-11-10T00:57:24.805Z,99564.09
2018-11-10T00:59:51.179Z,99562.12
2018-11-10T01:02:17.913Z,99558.77
2018-11-10T01:04:43.994Z,99560.14
2018-11-10T01:07:10.078Z,99565.13
2018-11-10T01:09:36.255Z,99566.83
2018-11-10T01:12:02.374Z,99555.11
2018-11-10T01:14:28.467Z,99545.15
2018-11-10T01:16:55.229Z,99546.16
2018-11-10T01:19:22.081Z,99543.73
2018-11-10T01:21:48.233Z,99548.07
2018-11-10T01:24:14.435Z,99553.62
2018-11-10T01:26:40.684Z,99550.67
2018-11-10T01:29:06.832Z,99548.53
2018-11-10T01:31:34.550Z,99543.87
2018-11-10T01:34:00.651Z,99540.77
2018-11-10T01:36:26.845Z,99543.83
2018-11-10T01:38:52.927Z,99537.55
2018-11-10T01:41:18.993Z,99531.94
2018-11-10T01:43:45.174Z,99530.27
2018-11-10T01:46:11.310Z,99527.45
2018-11-10T01:48:37.418Z,99525.08
2018-11-10T01:51:03.547Z,99527.07
2018-11-10T01:53:29.666Z,99525.04
2018-11-10T01:55:55.696Z,99523.36
2018-11-10T01:58:21.834Z,99517.47
2018-11-10T02:00:48.376Z,99517.72
2018-11-10T02:03:14.996Z,99520.61
2018-11-10T02:05:41.148Z,99517.25
2018-11-10T02:08:07.307Z,99517.30
2018-11-10T02:10:33.401Z,99514.73
2018-11-10T02:12:59.507Z,99510.31
2018-11-10T02:15:25.772Z,99506.80
2018-11-10T02:17:51.862Z,99506.09
2018-11-10T02:20:19.188Z,99501.25
2018-11-10T02:22:45.389Z,99493.76
2018-11-10T02:25:11.813Z,99508.59
2018-11-10T02:27:41.528Z,99503.53
2018-11-10T02:30:07.592Z,99502.08
2018-11-10T02:32:34.252Z,99502.78
2018-11-10T02:35:00.470Z,99503.16
2018-11-10T02:37:26.673Z,99502.36
2018-11-10T02:39:53.012Z,99505.26
2018-11-10T02:42:19.802Z,99502.21
2018-11-10T02:44:45.983Z,99497.94
2018-11-10T02:47:12.078Z,99491.31
2018-11-10T02:49:38.869Z,99492.07
2018-11-10T02:52:04.970Z,99497.05
2018-11-10T02:54:31.047Z,99496.55
2018-11-10T02:56:57.173Z,99492.56
2018-11-10T02:59:23.918Z,99492.56
2018-11-10T03:01:49.957Z,99492.32
2018-11-10T03:04:16.986Z,99492.61
2018-11-10T03:06:43.046Z,99487.89
2018-11-10T03:09:10.488Z,99492.63
2018-11-10T03:11:37.887Z,99487.25
2018-11-10T03:14:03.953Z,99493.39
2018-11-10T03:16:30.083Z,99492.77
2018-11-10T03:18:56.171Z,99479.98
2018-11-10T03:21:22.278Z,99477.31
2018-11-10T03:23:48.391Z,99485.20
2018-11-10T03:26:14.552Z,99482.70
2018-11-10T03:28:40.637Z,99484.33
2018-11-10T03:31:06.728Z,99481.77
2018-11-10T03:33:32.955Z,99475.41
2018-11-10T03:35:59.025Z,99474.14
2018-11-10T03:38:25.086Z,99470.06
2018-11-10T03:40:52.022Z,99468.08
2018-11-10T03:43:18.111Z,99464.03
2018-11-10T03:45:44.778Z,99459.71
2018-11-10T03:48:11.070Z,99461.32
2018-11-10T03:50:37.140Z,99457.88
2018-11-10T03:53:03.185Z,99455.18
2018-11-10T03:55:29.286Z,99450.02
2018-11-10T03:57:55.358Z,99445.84
2018-11-10T04:00:21.562Z,99445.00
2018-11-10T04:02:47.805Z,99448.58
2018-11-10T04:05:13.932Z,99447.93
2018-11-10T04:07:41.295Z,99443.09
2018-11-10T04:10:08.259Z,99448.31
2018-11-10T04:12:34.293Z,99443.58
2018-11-10T04:15:01.270Z,99447.48
2018-11-10T04:17:27.494Z,99444.04
2018-11-10T04:19:53.762Z,99440.72
2018-11-10T04:22:19.969Z,99438.06
2018-11-10T04:24:46.182Z,99437.34
2018-11-10T04:27:12.373Z,99435.23
2018-11-10T04:29:39.485Z,99432.22
2018-11-10T04:32:06.198Z,99430.41
2018-11-10T04:34:32.426Z,99431.53
2018-11-10T04:36:58.700Z,99430.97
2018-11-10T04:39:24.888Z,99430.90
2018-11-10T04:41:51.015Z,99431.72
2018-11-10T04:44:19.357Z,99425.94
2018-11-10T04:46:45.422Z,99425.10
2018-11-10T04:49:11.665Z,99426.38
2018-11-10T04:54:08.918Z,99417.94
2018-11-10T04:56:35.021Z,99414.60
2018-11-10T04:59:01.078Z,99420.14
2018-11-10T05:01:28.180Z,99416.72
2018-11-10T05:03:54.166Z,99421.30
2018-11-10T05:08:52.946Z,99420.02
2018-11-10T05:11:18.989Z,99421.28
2018-11-10T05:13:46.087Z,99418.29
2018-11-10T05:16:12.160Z,99417.91
2018-11-10T05:18:39.063Z,99416.20
2018-11-10T05:21:05.065Z,99414.13
2018-11-10T05:23:31.472Z,99412.91
2018-11-10T05:25:57.611Z,99412.91
2018-11-10T05:28:25.764Z,99410.07
2018-11-10T05:30:52.129Z,99412.58
2018-11-10T05:33:18.152Z,99411.17
2018-11-10T05:40:48.485Z,99403.61
2018-11-10T05:43:14.565Z,99403.96
2018-11-10T05:45:41.477Z,99397.27
2018-11-10T05:48:07.564Z,99404.66
2018-11-10T05:50:33.673Z,99398.48
2018-11-10T05:52:59.881Z,99396.82
2018-11-10T05:55:26.070Z,99402.78
2018-11-10T05:57:52.120Z,99403.97
2018-11-10T06:00:18.409Z,99404.80
2018-11-10T06:02:44.470Z,99405.01
2018-11-10T06:05:10.534Z,99397.85
2018-11-10T06:07:36.736Z,99395.38
2018-11-10T06:10:02.943Z,99400.16
2018-11-10T06:12:29.715Z,99393.83
2018-11-10T06:14:55.783Z,99394.73
2018-11-10T06:17:22.659Z,99391.39
2018-11-10T06:19:48.820Z,99386.28
2018-11-10T06:22:15.161Z,99387.83
2018-11-10T06:24:41.344Z,99382.63
2018-11-10T06:27:08.045Z,99385.50
2018-11-10T06:29:34.156Z,99385.30
2018-11-10T06:32:01.163Z,99387.89
2018-11-10T06:34:27.419Z,99383.34
2018-11-10T06:36:53.473Z,99380.83
2018-11-10T06:39:19.587Z,99375.94
2018-11-10T06:41:45.717Z,99382.71
2018-11-10T06:44:11.760Z,99380.95
2018-11-10T06:46:38.696Z,99380.97
2018-11-10T06:49:05.382Z,99381.69
2018-11-10T06:51:31.372Z,99376.22
2018-11-10T06:54:01.108Z,99376.67
2018-11-10T06:56:28.937Z,99383.65
2018-11-10T06:58:55.916Z,99378.43
2018-11-10T07:01:21.991Z,99385.26
2018-11-10T07:03:48.487Z,99386.15
2018-11-10T07:06:16.691Z,99382.79
2018-11-10T07:08:42.778Z,99389.25
2018-11-10T07:11:10.708Z,99383.13
2018-11-10T07:13:38.023Z,99384.09
2018-11-10T07:16:04.352Z,99385.18
2018-11-10T07:18:30.486Z,99383.91
2018-11-10T07:20:56.694Z,99384.14
2018-11-10T07:23:23.839Z,99385.54
2018-11-10T07:25:49.965Z,99381.25
2018-11-10T07:28:16.155Z,99375.66
2018-11-10T07:30:42.663Z,99383.25
2018-11-10T07:33:08.740Z,99381.94
2018-11-10T07:35:35.166Z,99386.41
2018-11-10T07:38:01.241Z,99385.22
2018-11-10T07:40:27.340Z,99387.61
2018-11-10T07:42:53.524Z,99387.30
2018-11-10T07:45:20.644Z,99387.99
2018-11-10T07:50:19.186Z,99382.73
2018-11-10T07:52:45.288Z,99384.69
2018-11-10T07:55:11.453Z,99390.25
2018-11-10T07:57:38.391Z,99380.62
2018-11-10T08:02:36.857Z,99392.15
2018-11-10T08:05:02.855Z,99383.36
2018-11-10T08:07:32.287Z,99383.16
2018-11-10T08:09:58.300Z,99380.50
2018-11-10T08:12:24.473Z,99389.70
2018-11-10T08:14:50.496Z,99385.30
2018-11-10T08:17:16.496Z,99383.09
2018-11-10T08:19:45.676Z,99384.45
2018-11-10T08:22:33.306Z,99393.67
2018-11-10T08:25:02.525Z,99392.56
2018-11-10T08:27:32.951Z,99391.45
2018-11-10T08:30:00.226Z,99392.39
2018-11-10T08:32:26.311Z,99384.28
2018-11-10T08:34:52.386Z,99380.63
2018-11-10T08:37:18.502Z,99374.61
2018-11-10T08:39:44.513Z,99385.91
2018-11-10T08:42:10.556Z,99373.84
2018-11-10T08:44:36.545Z,99374.64
2018-11-10T08:47:02.561Z,99391.28
2018-11-10T08:49:28.672Z,99382.28
2018-11-10T08:51:54.744Z,99384.41
2018-11-10T08:54:22.983Z,99377.57
2018-11-10T08:56:49.122Z,99381.31
2018-11-10T08:59:16.011Z,99390.52
2018-11-10T09:01:43.137Z,99383.09
2018-11-10T09:04:10.145Z,99394.55
2018-11-10T09:06:36.284Z,99386.02
2018-11-10T09:09:06.880Z,99384.36
2018-11-10T09:11:32.944Z,99386.27
2018-11-10T09:13:58.955Z,99384.95
2018-11-10T09:16:28.577Z,99387.12
2018-11-10T09:18:55.158Z,99390.73
2018-11-10T09:21:23.286Z,99395.41
2018-11-10T09:23:50.341Z,99397.70
2018-11-10T09:26:16.640Z,99390.40
2018-11-10T09:28:42.677Z,99412.22
2018-11-10T09:31:08.694Z,99407.84
2018-11-10T09:33:34.810Z,99399.31
2018-11-10T09:36:01.026Z,99395.66
2018-11-10T09:38:29.234Z,99405.46
2018-11-10T09:40:55.390Z,99400.03
2018-11-10T09:43:21.387Z,99410.31
2018-11-10T09:45:48.459Z,99400.20
2018-11-10T09:48:14.541Z,99393.20
2018-11-10T09:50:42.444Z,99403.64
2018-11-10T09:53:08.478Z,99423.68
2018-11-10T09:55:34.578Z,99414.84
2018-11-10T09:58:00.532Z,99398.83
2018-11-10T10:00:26.504Z,99398.59
2018-11-10T10:02:52.632Z,99396.62
2018-11-10T10:05:18.487Z,99397.02
2018-11-10T10:07:44.501Z,99395.91
2018-11-10T10:10:10.574Z,99364.38
2018-11-10T10:12:37.411Z,99377.45
2018-11-10T10:15:03.483Z,99382.45
2018-11-10T10:17:29.501Z,99383.22
2018-11-10T10:19:55.485Z,99382.13
2018-11-10T10:22:22.458Z,99379.78
2018-11-10T10:24:48.597Z,99355.75
2018-11-10T10:27:14.707Z,99390.21
2018-11-10T10:29:41.395Z,99379.65
2018-11-10T10:32:09.306Z,99369.08
2018-11-10T10:34:35.381Z,99362.11
2018-11-10T10:39:39.243Z,99365.46
2018-11-10T10:42:06.093Z,99365.88
2018-11-10T10:44:32.254Z,99346.83
2018-11-10T10:49:29.953Z,99342.90
2018-11-10T10:51:57.612Z,99357.92
2018-11-10T10:54:24.764Z,99358.34
2018-11-10T10:56:52.885Z,99338.99
2018-11-10T11:01:53.804Z,99361.98
2018-11-10T11:04:20.639Z,99344.25
2018-11-10T11:06:46.748Z,99352.73
2018-11-10T11:09:12.834Z,99309.20
2018-11-10T11:11:38.828Z,99323.32
2018-11-10T11:14:04.906Z,99326.30
2018-11-10T11:16:30.994Z,99312.25
2018-11-10T11:18:57.112Z,99319.30
2018-11-10T11:21:24.513Z,99317.22
2018-11-10T11:23:50.591Z,99315.13
2018-11-10T11:29:00.671Z,99311.61
2018-11-10T11:31:30.264Z,99309.23
2018-11-10T11:33:57.531Z,99301.42
2018-11-10T11:36:24.497Z,99307.77
2018-11-10T11:38:50.533Z,99305.52
2018-11-10T11:41:16.698Z,99296.78
2018-11-10T11:43:42.646Z,99308.46
2018-11-10T11:46:08.656Z,99290.77
2018-11-10T11:48:34.673Z,99304.86
2018-11-10T11:51:00.653Z,99307.36
2018-11-10T11:53:26.633Z,99304.98
2018-11-10T11:55:52.624Z,99310.70
2018-11-10T11:58:18.716Z,99314.41
2018-11-10T12:00:44.600Z,99310.81
2018-11-10T12:03:10.572Z,99312.41
2018-11-10T12:05:36.644Z,99311.30
2018-11-10T12:08:02.700Z,99303.95
2018-11-10T12:10:28.706Z,99313.83
2018-11-10T12:12:54.770Z,99306.22
2018-11-10T12:15:20.772Z,99304.14
2018-11-10T12:17:47.597Z,99303.89
2018-11-10T12:20:13.597Z,99308.91
2018-11-10T12:22:39.581Z,99307.63
2018-11-10T12:25:05.571Z,99315.00
2018-11-10T12:27:31.655Z,99328.36
2018-11-10T12:29:57.661Z,99331.04
2018-11-10T12:32:23.734Z,99343.31
2018-11-10T12:34:49.884Z,99347.02
2018-11-10T12:37:15.942Z,99341.97
2018-11-10T12:39:42.043Z,99338.56
2018-11-10T12:42:08.067Z,99346.88
2018-11-10T12:44:34.142Z,99340.45
2018-11-10T12:47:00.128Z,99343.28
2018-11-10T12:49:27.172Z,99343.37
2018-11-10T12:51:53.160Z,99335.63
2018-11-10T12:54:19.205Z,99345.50
2018-11-10T12:56:45.380Z,99332.09
2018-11-10T12:59:11.484Z,99337.00
2018-11-10T13:01:37.516Z,99336.39
2018-11-10T13:04:03.496Z,99325.09
2018-11-10T13:06:29.561Z,99322.21
2018-11-10T13:08:55.624Z,99311.69
2018-11-10T13:11:21.840Z,99310.32
2018-11-10T13:13:47.769Z,99313.38
2018-11-10T13:16:13.750Z,99302.38
2018-11-10T13:18:39.765Z,99307.26
2018-11-10T13:21:05.732Z,99305.41
2018-11-10T13:23:31.692Z,99324.97
2018-11-10T13:25:57.637Z,99318.69
2018-11-10T13:28:23.622Z,99312.88
2018-11-10T13:30:50.361Z,99310.38
2018-11-10T13:33:16.363Z,99317.50
2018-11-10T13:35:42.354Z,99318.53
2018-11-10T13:38:08.359Z,99329.21
2018-11-10T13:40:34.290Z,99319.67
2018-11-10T13:43:00.268Z,99315.38
2018-11-10T13:45:26.247Z,99316.83
2018-11-10T13:47:52.248Z,99309.57
2018-11-10T13:50:18.269Z,99306.64
2018-11-10T13:52:44.533Z,99296.73
2018-11-10T13:55:10.287Z,99303.02
2018-11-10T13:57:36.284Z,99300.84
2018-11-10T14:00:02.267Z,99297.07
2018-11-10T14:02:28.217Z,99301.17
2018-11-10T14:04:54.188Z,99300.28
2018-11-10T14:07:20.156Z,99320.42
2018-11-10T14:09:46.116Z,99304.61
2018-11-10T14:12:12.090Z,99310.38
2018-11-10T14:14:38.111Z,99308.34
2018-11-10T14:17:04.067Z,99307.22
2018-11-10T14:19:31.105Z,99311.88
2018-11-10T14:21:57.086Z,99300.45
2018-11-10T14:24:23.050Z,99306.65
2018-11-10T14:31:56.504Z,99309.70
2018-11-10T14:34:22.475Z,99312.55
2018-11-10T14:36:48.462Z,99307.54
2018-11-10T14:39:14.448Z,99310.66
2018-11-10T14:41:40.428Z,99318.30
2018-11-10T14:44:06.500Z,99324.81
2018-11-10T14:46:32.442Z,99325.06
2018-11-10T14:48:58.409Z,99329.17
2018-11-10T14:51:24.383Z,99328.79
2018-11-10T14:53:50.366Z,99334.58
2018-11-10T14:56:16.340Z,99340.86
2018-11-10T14:58:42.420Z,99331.48
2018-11-10T15:01:08.324Z,99332.03
2018-11-10T15:03:34.339Z,99344.18
2018-11-10T15:06:00.372Z,99331.44
2018-11-10T15:08:26.392Z,99341.30
2018-11-10T15:10:52.422Z,99338.88
2018-11-10T15:13:18.457Z,99338.88
2018-11-10T15:15:44.460Z,99342.95
2018-11-10T15:18:10.655Z,99339.03
2018-11-10T15:20:37.249Z,99331.86
2018-11-10T15:23:03.283Z,99335.40
2018-11-10T15:25:30.277Z,99337.38
2018-11-10T15:27:56.312Z,99334.97
2018-11-10T15:30:22.423Z,99330.85
2018-11-10T15:32:48.458Z,99340.95
2018-11-10T15:35:14.585Z,99344.22
2018-11-10T15:37:40.755Z,99350.17
2018-11-10T15:40:06.737Z,99349.46
2018-11-10T15:42:32.756Z,99345.55
2018-11-10T15:44:58.839Z,99346.59
2018-11-10T15:47:24.934Z,99349.99
2018-11-10T15:49:50.930Z,99351.81
2018-11-10T15:52:16.957Z,99356.72
2018-11-10T15:54:43.075Z,99358.04
2018-11-10T15:57:09.220Z,99362.44
2018-11-10T15:59:35.263Z,99362.34
2018-11-10T16:02:01.323Z,99360.55
2018-11-10T16:04:27.423Z,99358.80
2018-11-10T16:06:53.458Z,99357.11
2018-11-10T16:09:19.652Z,99360.93
2018-11-10T16:11:45.752Z,99360.97
2018-11-10T16:14:11.819Z,99359.51
2018-11-10T16:16:37.865Z,99359.42
2018-11-10T16:19:03.902Z,99360.73
2018-11-10T16:21:30.038Z,99369.41
2018-11-10T16:23:56.080Z,99368.19
2018-11-10T16:26:22.277Z,99368.66
2018-11-10T16:28:48.289Z,99364.16
2018-11-10T16:31:14.406Z,99365.05
2018-11-10T16:33:40.494Z,99368.87
2018-11-10T16:36:06.676Z,99372.65
2018-11-10T16:38:32.780Z,99367.55
2018-11-10T16:40:58.910Z,99365.22
2018-11-10T16:43:24.959Z,99370.36
2018-11-10T16:48:22.981Z,99372.18
2018-11-10T16:50:50.276Z,99375.66
2018-11-10T16:53:16.815Z,99373.63
2018-11-10T16:55:42.931Z,99370.48
2018-11-10T16:58:08.967Z,99373.84
2018-11-10T17:05:42.498Z,99368.28
2018-11-10T17:08:09.321Z,99367.34
2018-11-10T17:10:38.047Z,99243.10
2018-11-10T17:13:04.884Z,99352.45
2018-11-10T17:15:31.016Z,99358.65
2018-11-10T17:17:58.025Z,99365.17
2018-11-10T17:20:24.921Z,99362.95
2018-11-10T17:32:57.065Z,99361.77
2018-11-10T17:35:23.856Z,99361.13
2018-11-10T17:37:49.915Z,99357.74
2018-11-10T17:40:18.767Z,99357.30
2018-11-10T17:42:47.216Z,99358.56
2018-11-10T17:45:14.598Z,99357.16
2018-11-10T17:47:40.699Z,99355.68
2018-11-10T17:56:49.334Z,99351.16
2018-11-10T17:59:15.276Z,99351.06
2018-11-10T18:01:42.140Z,99353.77
2018-11-10T18:04:07.953Z,99353.94
2018-11-10T18:06:33.939Z,99345.70
2018-11-10T18:08:59.992Z,99347.19
2018-11-10T18:11:26.812Z,99350.20
2018-11-10T18:13:52.774Z,99356.50
2018-11-10T18:16:18.762Z,99355.58
2018-11-10T18:18:44.744Z,99352.83
2018-11-10T18:21:10.748Z,99362.58
2018-11-10T18:23:36.745Z,99361.80
2018-11-10T18:26:02.736Z,99364.42
2018-11-10T18:28:31.832Z,99361.38
2018-11-10T18:30:57.832Z,99361.06
2018-11-10T18:33:23.881Z,99361.17
2018-11-10T18:35:49.901Z,99358.03
2018-11-10T18:38:15.898Z,99356.34
2018-11-10T18:40:41.862Z,99357.96
2018-11-10T18:43:07.833Z,99363.86
2018-11-10T18:45:33.785Z,99361.78
2018-11-10T18:47:59.748Z,99363.12
2018-11-10T18:50:25.705Z,99359.23
2018-11-10T18:52:51.796Z,99360.22
2018-11-10T18:55:17.861Z,99354.82
2018-11-10T18:57:44.717Z,99346.28
2018-11-10T19:00:10.561Z,99351.82
2018-11-10T19:02:36.531Z,99346.06
2018-11-10T19:05:02.537Z,99345.39
2018-11-10T19:07:28.593Z,99343.91
2018-11-10T19:09:55.721Z,99343.52
2018-11-10T19:12:21.986Z,99352.76
2018-11-10T19:14:48.100Z,99349.02
2018-11-10T19:17:14.311Z,99350.25
2018-11-10T19:19:40.318Z,99348.62
2018-11-10T19:22:07.100Z,99346.12
2018-11-10T19:24:33.196Z,99350.80
2018-11-10T19:26:59.235Z,99350.87
2018-11-10T19:29:25.841Z,99343.91
2018-11-10T19:31:55.512Z,99346.84
2018-11-10T19:34:21.579Z,99342.25
2018-11-10T19:36:47.624Z,99345.99
2018-11-10T19:39:14.352Z,99346.24
2018-11-10T19:41:40.407Z,99351.61
2018-11-10T19:44:06.598Z,99352.06
2018-11-10T19:46:33.854Z,99356.93
2018-11-10T19:49:00.001Z,99351.45
2018-11-10T19:51:26.160Z,99348.28
2018-11-10T19:53:52.082Z,99353.27
2018-11-10T19:56:19.093Z,99279.36
2018-11-10T19:58:47.861Z,99351.75
2018-11-10T20:01:13.969Z,99341.23
2018-11-10T20:03:40.115Z,99341.30
2018-11-10T20:06:06.344Z,99340.84
2018-11-10T20:08:32.546Z,99338.77
2018-11-10T20:10:58.604Z,99339.38
2018-11-10T20:13:24.634Z,99351.30
2018-11-10T20:15:50.619Z,99350.45
2018-11-10T20:18:16.679Z,99347.91
2018-11-10T20:20:42.760Z,99346.51
2018-11-10T20:23:08.800Z,99344.39
2018-11-10T20:25:38.557Z,99352.47
2018-11-10T20:30:41.318Z,99343.38
2018-11-10T20:33:07.333Z,99341.07
2018-11-10T20:35:33.324Z,99332.30
2018-11-10T20:37:59.305Z,99338.42
2018-11-10T20:40:25.271Z,99329.14
2018-11-10T20:42:51.274Z,99331.44
2018-11-10T20:45:17.311Z,99334.58
2018-11-10T20:47:43.313Z,99332.67
2018-11-10T20:50:09.365Z,99329.61
2018-11-10T20:52:35.356Z,99330.06
2018-11-10T20:55:01.370Z,99334.33
2018-11-10T20:57:27.347Z,99329.28
2018-11-10T20:59:53.338Z,99328.66
2018-11-10T21:02:19.370Z,99330.48
2018-11-10T21:04:45.376Z,99329.58
2018-11-10T21:07:11.393Z,99332.02
2018-11-10T21:09:37.366Z,99323.97
2018-11-10T21:12:03.400Z,99319.16
2018-11-10T21:14:29.397Z,99315.25
2018-11-10T21:16:55.397Z,99310.36
2018-11-10T21:19:21.357Z,99303.78
2018-11-10T21:21:47.365Z,99304.34
2018-11-10T21:24:13.371Z,99308.60
2018-11-10T21:26:39.431Z,99304.05
2018-11-10T21:29:05.552Z,99307.58
2018-11-10T21:31:32.780Z,99314.25
2018-11-10T21:33:58.934Z,99314.36
2018-11-10T21:41:27.626Z,99317.54
2018-11-10T21:51:27.588Z,99308.00
2018-11-10T21:53:53.607Z,99304.86
2018-11-10T21:56:19.561Z,99306.87
2018-11-10T21:58:45.516Z,99310.77
2018-11-10T22:01:11.529Z,99306.38
2018-11-10T22:03:37.514Z,99305.39
2018-11-10T22:06:03.491Z,99310.05
2018-11-10T22:08:29.479Z,99316.02
2018-11-10T22:10:55.481Z,99311.06
2018-11-10T22:13:21.463Z,99316.86
2018-11-10T22:15:47.533Z,99324.31
2018-11-10T22:18:13.498Z,99323.77
2018-11-10T22:20:40.285Z,99325.99
2018-11-10T22:23:06.387Z,99325.63
2018-11-10T22:25:32.313Z,99325.67
2018-11-10T22:27:58.970Z,99325.79
2018-11-10T22:30:27.559Z,99333.34
2018-11-10T22:32:53.645Z,99329.38
2018-11-10T22:35:19.702Z,99324.17
2018-11-10T22:37:46.362Z,99326.74
2018-11-10T22:40:12.499Z,99329.08
2018-11-10T22:42:39.658Z,99328.60
2018-11-10T22:45:08.554Z,99322.61
2018-11-10T22:47:35.322Z,99320.95
2018-11-10T22:50:01.433Z,99324.70
2018-11-10T22:52:27.543Z,99327.54
2018-11-10T22:54:53.615Z,99323.13
2018-11-10T22:59:50.810Z,99319.05
2018-11-10T23:02:16.909Z,99308.77
2018-11-10T23:04:42.900Z,99313.25
2018-11-10T23:07:09.182Z,99317.66
2018-11-10T23:09:36.237Z,99318.30
2018-11-10T23:12:02.356Z,99311.10
2018-11-10T23:14:29.043Z,99321.83
2018-11-10T23:16:55.185Z,99317.54
2018-11-10T23:19:22.065Z,99319.17
2018-11-10T23:21:48.142Z,99316.72
2018-11-10T23:24:14.805Z,99317.42
2018-11-10T23:26:40.855Z,99316.06
2018-11-10T23:29:06.893Z,99319.44
2018-11-10T23:31:32.930Z,99312.59
2018-11-10T23:33:59.021Z,99310.41
2018-11-10T23:36:25.813Z,99308.01
2018-11-10T23:38:53.887Z,99314.86
2018-11-10T23:41:23.205Z,99316.77
2018-11-10T23:43:50.644Z,99314.48
2018-11-10T23:46:17.692Z,99310.41
2018-11-10T23:48:44.022Z,99306.17
2018-11-10T23:51:10.236Z,99309.59
2018-11-10T23:53:36.390Z,99311.36
2018-11-10T23:56:02.910Z,99312.94
2018-11-10T23:58:29.124Z,99307.81
